Terminal Aerodrome Forecast
Issued by NWS Wilmington, NC

Home | Current Version | Previous Version | Text Only | Print | Product List | Glossary On
Versions: 1 2 3 4 5 6 7 8 9 10 11 12 13 14 15 16 17 18 19 20 21 22 23 24 25 26
000
FTUS42 KILM 170500
TAFFLO
TAF
KFLO 170529Z 1706/1806 VRB06G15KT 6SM SHRA BKN020 OVC035
     FM170800 03004KT 4SM BR SCT015 BKN035
     FM171400 06006KT P6SM SCT025 BKN050=

USA.gov is the U.S. government's official web portal to all federal, state and local government web resources and services.